createdAt,value
2022-08-17T00:02:25.507Z,11.43
2022-08-17T00:04:55.138Z,9.90
2022-08-17T00:07:23.412Z,13.25
2022-08-17T00:09:50.385Z,11.38
2022-08-17T00:12:41.880Z,10.98
2022-08-17T00:15:06.042Z,11.60
2022-08-17T00:17:37.764Z,12.88
2022-08-17T00:20:05.952Z,12.77
2022-08-17T00:22:36.374Z,11.27
2022-08-17T00:25:10.374Z,12.93
2022-08-17T00:27:37.462Z,11.95
2022-08-17T00:30:07.699Z,10.43
2022-08-17T00:33:14.381Z,10.30
2022-08-17T00:35:30.978Z,10.60
2022-08-17T00:37:58.043Z,12.68
2022-08-17T00:40:25.075Z,10.82
2022-08-17T00:42:53.475Z,9.30
2022-08-17T00:45:20.766Z,10.07
2022-08-17T00:47:49.509Z,10.60
2022-08-17T00:50:19.033Z,10.43
2022-08-17T00:52:54.931Z,10.05
2022-08-17T00:55:24.254Z,10.73
2022-08-17T00:57:56.724Z,15.13
2022-08-17T01:00:32.608Z,12.27
2022-08-17T01:03:06.446Z,10.55
2022-08-17T01:05:38.454Z,10.07
2022-08-17T01:08:13.399Z,10.38
2022-08-17T01:10:59.417Z,9.65
2022-08-17T01:13:41.863Z,10.25
2022-08-17T01:16:29.954Z,10.57
2022-08-17T01:19:05.366Z,12.57
2022-08-17T01:21:47.769Z,10.15
2022-08-17T01:24:15.706Z,11.45
2022-08-17T01:26:44.266Z,11.30
2022-08-17T01:29:12.711Z,12.18
2022-08-17T01:31:45.635Z,10.77
2022-08-17T01:34:15.991Z,9.73
2022-08-17T01:36:46.019Z,13.80
2022-08-17T01:39:23.449Z,11.80
2022-08-17T01:41:54.022Z,8.48
2022-08-17T01:44:23.539Z,10.73
2022-08-17T01:46:50.704Z,8.10
2022-08-17T01:49:19.752Z,9.38
2022-08-17T01:51:46.808Z,10.60
2022-08-17T01:54:16.254Z,10.52
2022-08-17T01:56:47.829Z,9.50
2022-08-17T01:59:16.548Z,11.27
2022-08-17T02:01:44.219Z,15.23
2022-08-17T02:04:12.332Z,10.90
2022-08-17T02:06:45.199Z,8.98
2022-08-17T02:09:25.686Z,10.77
2022-08-17T02:11:56.304Z,9.18
2022-08-17T02:14:25.328Z,11.57
2022-08-17T02:16:52.586Z,11.02
2022-08-17T02:19:20.110Z,10.55
2022-08-17T02:21:49.856Z,10.85
2022-08-17T02:24:58.778Z,11.35
2022-08-17T02:27:12.955Z,10.30
2022-08-17T02:29:40.229Z,9.57
2022-08-17T02:32:15.367Z,10.63
2022-08-17T02:34:52.826Z,12.57
2022-08-17T02:37:19.736Z,13.05
2022-08-17T02:39:46.822Z,16.92
2022-08-17T02:42:15.176Z,11.48
2022-08-17T02:44:42.373Z,11.70
2022-08-17T02:47:10.543Z,12.60
2022-08-17T02:49:38.151Z,11.65
2022-08-17T02:52:07.352Z,11.50
2022-08-17T02:54:39.842Z,11.97
2022-08-17T02:57:08.320Z,10.35
2022-08-17T02:59:35.425Z,15.35
2022-08-17T03:02:11.317Z,10.98
2022-08-17T03:04:38.954Z,13.85
2022-08-17T03:07:06.721Z,11.38
2022-08-17T03:09:34.074Z,14.45
2022-08-17T03:12:09.168Z,13.30
2022-08-17T03:14:43.572Z,12.35
2022-08-17T03:17:15.899Z,13.50
2022-08-17T03:19:45.038Z,10.75
2022-08-17T03:22:35.864Z,14.50
2022-08-17T03:24:59.789Z,14.63
2022-08-17T03:27:26.762Z,9.88
2022-08-17T03:29:53.710Z,12.90
2022-08-17T03:32:21.372Z,10.00
2022-08-17T03:34:48.578Z,11.57
2022-08-17T03:37:15.605Z,12.38
2022-08-17T03:39:43.149Z,12.35
2022-08-17T03:42:31.963Z,10.63
2022-08-17T03:45:01.752Z,11.65
2022-08-17T03:47:49.137Z,12.75
2022-08-17T03:50:35.627Z,10.65
2022-08-17T03:53:33.246Z,12.82
2022-08-17T03:56:23.255Z,15.88
2022-08-17T03:58:50.583Z,12.75
2022-08-17T04:01:18.075Z,15.70
2022-08-17T04:03:45.205Z,12.43
2022-08-17T04:06:12.099Z,12.38
2022-08-17T04:08:39.216Z,12.18
2022-08-17T04:11:06.264Z,12.98
2022-08-17T04:13:33.222Z,12.70
2022-08-17T04:16:00.221Z,15.07
2022-08-17T04:18:27.229Z,10.85
2022-08-17T04:20:54.264Z,14.73
2022-08-17T04:23:21.472Z,10.60
2022-08-17T04:25:50.604Z,16.73
2022-08-17T04:28:18.896Z,14.75
2022-08-17T04:30:47.659Z,16.45
2022-08-17T04:33:16.970Z,13.52
2022-08-17T04:35:47.350Z,15.52
2022-08-17T04:38:18.311Z,14.15
2022-08-17T04:41:03.657Z,15.65
2022-08-17T04:43:33.467Z,13.35
2022-08-17T04:46:03.438Z,16.90
2022-08-17T04:48:42.910Z,14.50
2022-08-17T04:51:17.673Z,16.15
2022-08-17T04:53:54.062Z,16.98
2022-08-17T04:56:25.287Z,18.55
2022-08-17T04:58:55.863Z,22.08
2022-08-17T05:01:24.862Z,19.77
2022-08-17T05:03:53.693Z,18.95
2022-08-17T05:06:21.187Z,19.83
2022-08-17T05:08:48.269Z,22.80
2022-08-17T05:11:15.813Z,19.95
2022-08-17T05:13:42.754Z,22.38
2022-08-17T05:16:11.027Z,21.23
2022-08-17T05:18:38.953Z,22.27
2022-08-17T05:21:07.065Z,21.58
2022-08-17T05:23:42.459Z,24.17
2022-08-17T05:26:26.977Z,24.60
2022-08-17T05:28:57.148Z,23.13
2022-08-17T05:31:28.001Z,25.63
2022-08-17T05:33:55.081Z,24.10
2022-08-17T05:36:43.247Z,23.85
2022-08-17T05:39:09.454Z,25.05
2022-08-17T05:41:43.009Z,23.08
2022-08-17T05:44:10.158Z,25.60
2022-08-17T05:46:41.478Z,22.67
2022-08-17T05:49:08.894Z,27.00
2022-08-17T05:52:10.158Z,25.75
2022-08-17T05:55:09.305Z,23.88
2022-08-17T05:57:53.478Z,23.77
2022-08-17T06:00:42.097Z,21.38
2022-08-17T06:03:33.228Z,18.00
2022-08-17T06:06:17.365Z,22.83
2022-08-17T06:08:53.598Z,23.90
2022-08-17T06:11:39.070Z,19.90
2022-08-17T06:14:25.742Z,18.73
2022-08-17T06:17:01.182Z,22.05
2022-08-17T06:19:34.144Z,16.85
2022-08-17T06:22:02.950Z,15.23
2022-08-17T06:24:51.709Z,15.50
2022-08-17T06:27:37.738Z,14.48
2022-08-17T06:30:21.605Z,14.10
2022-08-17T06:32:51.030Z,16.90
2022-08-17T06:38:38.531Z,12.85
2022-08-17T06:41:37.565Z,11.93
2022-08-17T06:44:43.186Z,9.63
2022-08-17T06:47:35.456Z,12.15
2022-08-17T06:50:08.547Z,10.40
2022-08-17T06:52:59.508Z,10.02
2022-08-17T06:55:38.124Z,12.73
2022-08-17T06:58:15.968Z,13.60
2022-08-17T07:00:47.422Z,9.68
2022-08-17T07:03:38.155Z,11.70
2022-08-17T07:06:17.446Z,9.88
2022-08-17T07:08:56.195Z,10.90
2022-08-17T07:11:34.057Z,11.43
2022-08-17T07:14:19.782Z,10.27
2022-08-17T07:16:51.784Z,9.10
2022-08-17T07:19:25.418Z,6.40
2022-08-17T07:22:10.987Z,6.68
2022-08-17T07:24:53.144Z,11.60
2022-08-17T07:27:22.905Z,10.90
2022-08-17T07:30:03.755Z,8.88
2022-08-17T07:32:48.431Z,7.85
2022-08-17T07:35:21.189Z,6.53
2022-08-17T07:37:55.789Z,8.13
2022-08-17T07:40:49.161Z,9.45
2022-08-17T07:43:22.230Z,6.68
2022-08-17T07:46:20.487Z,8.35
2022-08-17T07:48:52.559Z,6.43
2022-08-17T07:51:27.839Z,4.70
2022-08-17T07:54:13.463Z,11.23
2022-08-17T07:56:56.504Z,6.10
2022-08-17T07:59:35.709Z,7.28
2022-08-17T08:05:01.863Z,6.88
2022-08-17T08:07:58.154Z,8.30
2022-08-17T08:10:35.599Z,6.28
2022-08-17T08:13:14.274Z,5.47
2022-08-17T08:15:53.850Z,7.80
2022-08-17T08:18:55.065Z,7.10
2022-08-17T08:21:24.810Z,4.82
2022-08-17T08:23:54.824Z,7.50
2022-08-17T08:26:51.244Z,7.55
2022-08-17T08:29:28.446Z,6.38
2022-08-17T08:32:22.163Z,6.57
2022-08-17T08:35:02.920Z,8.80
2022-08-17T08:37:43.690Z,7.32
2022-08-17T08:40:11.519Z,4.50
2022-08-17T08:43:14.029Z,8.02
2022-08-17T08:45:56.723Z,6.00
2022-08-17T08:48:53.214Z,6.90
2022-08-17T08:51:35.949Z,9.13
2022-08-17T08:54:28.623Z,11.80
2022-08-17T08:57:30.872Z,6.25
2022-08-17T09:00:20.243Z,8.48
2022-08-17T09:02:56.553Z,8.02
2022-08-17T09:05:32.437Z,6.15
2022-08-17T09:08:18.012Z,10.52
2022-08-17T09:10:44.983Z,6.45
2022-08-17T09:13:31.558Z,9.93
2022-08-17T09:16:11.578Z,7.35
2022-08-17T09:19:00.247Z,6.15
2022-08-17T09:21:54.985Z,8.10
2022-08-17T09:25:03.341Z,6.95
2022-08-17T09:27:48.118Z,8.82
2022-08-17T09:30:15.579Z,10.80
2022-08-17T09:32:47.075Z,5.97
2022-08-17T09:35:37.040Z,6.03
2022-08-17T09:38:40.562Z,6.47
2022-08-17T09:41:20.512Z,7.80
2022-08-17T09:44:23.692Z,8.57
2022-08-17T09:46:56.062Z,5.20
2022-08-17T09:49:35.008Z,5.53
2022-08-17T09:52:17.866Z,4.47
2022-08-17T09:54:46.113Z,6.82
2022-08-17T09:57:32.571Z,9.95
2022-08-17T10:00:12.864Z,5.95
2022-08-17T10:02:54.754Z,7.57
2022-08-17T10:05:46.251Z,8.35
2022-08-17T10:08:15.939Z,5.63
2022-08-17T10:11:08.082Z,8.77
2022-08-17T10:13:47.183Z,9.02
2022-08-17T10:16:26.337Z,8.63
2022-08-17T10:19:24.280Z,9.07
2022-08-17T10:22:32.352Z,10.70
2022-08-17T10:25:24.207Z,7.30
2022-08-17T10:27:59.811Z,11.63
2022-08-17T10:30:31.805Z,9.30
2022-08-17T10:33:21.567Z,7.13
2022-08-17T10:36:32.170Z,10.18
2022-08-17T10:39:11.450Z,8.20
2022-08-17T10:44:40.272Z,10.73
2022-08-17T10:47:17.301Z,8.43
2022-08-17T10:49:56.095Z,8.07
2022-08-17T10:52:25.007Z,7.22
2022-08-17T10:57:41.997Z,10.20
2022-08-17T11:00:35.272Z,9.65
2022-08-17T11:03:07.912Z,8.82
2022-08-17T11:05:54.144Z,7.97
2022-08-17T11:08:33.295Z,10.82
2022-08-17T11:11:19.793Z,9.63
2022-08-17T11:13:49.579Z,8.65
2022-08-17T11:16:48.123Z,10.32
2022-08-17T11:19:41.731Z,7.68
2022-08-17T11:22:33.405Z,6.68
2022-08-17T11:25:31.354Z,6.00
2022-08-17T11:28:09.471Z,8.05
2022-08-17T11:30:51.673Z,9.55
2022-08-17T11:33:38.098Z,7.35
2022-08-17T11:36:38.921Z,15.63
2022-08-17T11:39:05.763Z,7.93
2022-08-17T11:41:35.586Z,10.30
2022-08-17T11:44:29.151Z,11.55
2022-08-17T11:48:23.833Z,10.23
2022-08-17T11:51:47.269Z,8.20
2022-08-17T11:54:34.781Z,7.63
2022-08-17T11:57:29.383Z,11.85
2022-08-17T12:00:29.084Z,11.15
2022-08-17T12:03:24.916Z,11.07
2022-08-17T12:06:07.112Z,9.45
2022-08-17T12:08:43.478Z,9.60
2022-08-17T12:11:55.488Z,6.82
2022-08-17T12:14:21.267Z,6.80
2022-08-17T12:17:05.718Z,8.30
2022-08-17T12:19:34.535Z,8.88
2022-08-17T12:22:23.610Z,6.43
2022-08-17T12:27:53.137Z,11.00
2022-08-17T12:30:22.190Z,11.35
2022-08-17T12:32:50.126Z,8.90
2022-08-17T12:35:34.706Z,8.98
2022-08-17T12:38:04.513Z,8.93
2022-08-17T12:40:33.066Z,6.25
2022-08-17T12:43:18.034Z,6.30
2022-08-17T12:45:53.751Z,7.72
2022-08-17T12:48:28.706Z,7.97
2022-08-17T12:51:01.958Z,6.93
2022-08-17T12:53:31.999Z,10.75
2022-08-17T12:56:01.327Z,7.60
2022-08-17T12:58:35.174Z,5.60
2022-08-17T13:01:08.884Z,7.90
2022-08-17T13:03:40.828Z,6.50
2022-08-17T13:06:12.214Z,7.65
2022-08-17T13:08:50.283Z,6.30
2022-08-17T13:11:21.179Z,7.32
2022-08-17T13:13:55.119Z,9.50
2022-08-17T13:16:28.151Z,8.50
2022-08-17T13:18:55.387Z,6.90
2022-08-17T13:21:30.635Z,7.07
2022-08-17T13:24:05.988Z,6.50
2022-08-17T13:27:08.227Z,8.75
2022-08-17T13:29:45.011Z,5.78
2022-08-17T13:32:36.267Z,7.60
2022-08-17T13:35:32.826Z,7.90
2022-08-17T13:38:11.851Z,7.22
2022-08-17T13:40:45.870Z,8.65
2022-08-17T13:43:40.810Z,7.20
2022-08-17T13:46:32.563Z,9.40
2022-08-17T13:49:06.919Z,9.32
2022-08-17T13:51:41.781Z,8.75
2022-08-17T13:54:23.494Z,12.52
2022-08-17T13:57:00.245Z,7.05
2022-08-17T13:59:54.655Z,7.82
2022-08-17T14:02:28.347Z,5.28
2022-08-17T14:05:02.052Z,7.25
2022-08-17T14:07:37.410Z,9.88
2022-08-17T14:10:10.601Z,8.23
2022-08-17T14:12:40.594Z,8.63
2022-08-17T14:15:10.252Z,8.13
2022-08-17T14:17:39.125Z,8.55
2022-08-17T14:20:09.802Z,7.35
2022-08-17T14:22:44.591Z,10.75
2022-08-17T14:25:14.132Z,9.32
2022-08-17T14:30:29.703Z,8.13
2022-08-17T14:37:25.321Z,11.88
2022-08-17T14:40:01.402Z,7.95
2022-08-17T14:42:33.313Z,9.05
2022-08-17T14:45:06.095Z,11.38
2022-08-17T14:47:34.259Z,7.88
2022-08-17T14:50:02.260Z,10.13
2022-08-17T14:52:31.372Z,10.30
2022-08-17T14:58:07.030Z,11.68
2022-08-17T15:00:33.972Z,7.60
2022-08-17T15:03:02.309Z,8.45
2022-08-17T15:05:35.504Z,10.63
2022-08-17T15:08:04.742Z,7.50
2022-08-17T15:10:57.506Z,7.22
2022-08-17T15:13:26.479Z,9.18
2022-08-17T15:15:54.760Z,5.30
2022-08-17T15:18:22.515Z,5.75
2022-08-17T15:20:50.152Z,6.93
2022-08-17T15:23:20.112Z,6.10
2022-08-17T15:25:48.788Z,7.90
2022-08-17T15:28:16.919Z,6.15
2022-08-17T15:30:45.056Z,6.13
2022-08-17T15:33:29.584Z,6.60
2022-08-17T15:35:59.348Z,9.50
2022-08-17T15:38:28.112Z,5.43
2022-08-17T15:40:56.811Z,6.25
2022-08-17T15:43:28.362Z,5.72
2022-08-17T15:46:03.634Z,5.30
2022-08-17T15:48:42.173Z,5.28
2022-08-17T15:51:13.780Z,5.93
2022-08-17T15:53:43.121Z,9.00
2022-08-17T15:56:11.260Z,6.07
2022-08-17T15:58:38.638Z,5.93
2022-08-17T16:01:16.617Z,10.63
2022-08-17T16:04:04.069Z,6.10
2022-08-17T16:06:34.562Z,5.68
2022-08-17T16:09:02.030Z,5.93
2022-08-17T16:11:28.957Z,6.40
2022-08-17T16:13:56.159Z,8.48
2022-08-17T16:16:24.334Z,5.78
2022-08-17T16:18:54.517Z,7.78
2022-08-17T16:21:27.204Z,5.63
2022-08-17T16:23:58.309Z,9.35
2022-08-17T16:26:26.686Z,8.50
2022-08-17T16:28:54.828Z,5.65
2022-08-17T16:31:22.661Z,5.43
2022-08-17T16:34:15.788Z,6.07
2022-08-17T16:36:38.765Z,5.93
2022-08-17T16:39:05.766Z,6.43
2022-08-17T16:41:48.866Z,6.80
2022-08-17T16:44:18.880Z,9.50
2022-08-17T16:46:50.379Z,5.60
2022-08-17T16:49:35.795Z,6.88
2022-08-17T16:52:11.987Z,7.35
2022-08-17T16:54:43.933Z,8.00
2022-08-17T16:57:12.400Z,6.25
2022-08-17T16:59:42.411Z,5.22
2022-08-17T17:02:14.512Z,9.65
2022-08-17T17:05:00.182Z,6.78
2022-08-17T17:07:45.490Z,6.32
2022-08-17T17:10:20.034Z,8.50
2022-08-17T17:13:01.414Z,6.93
2022-08-17T17:15:43.108Z,5.60
2022-08-17T17:18:12.841Z,8.07
2022-08-17T17:20:51.159Z,7.10
2022-08-17T17:23:47.668Z,10.25
2022-08-17T17:26:48.478Z,7.80
2022-08-17T17:29:47.354Z,9.32
2022-08-17T17:32:28.526Z,11.93
2022-08-17T17:35:09.728Z,8.50
2022-08-17T17:37:40.197Z,7.93
2022-08-17T17:40:15.440Z,10.07
2022-08-17T17:42:44.200Z,7.63
2022-08-17T17:45:23.983Z,10.20
2022-08-17T17:47:51.440Z,13.50
2022-08-17T17:50:21.490Z,10.23
2022-08-17T17:53:02.251Z,8.77
2022-08-17T17:55:38.489Z,10.43
2022-08-17T17:58:33.305Z,11.95
2022-08-17T18:01:25.154Z,9.88
2022-08-17T18:03:59.224Z,7.75
2022-08-17T18:06:50.517Z,7.63
2022-08-17T18:09:50.982Z,10.05
2022-08-17T18:12:37.671Z,8.23
2022-08-17T18:15:23.883Z,12.05
2022-08-17T18:18:09.768Z,9.25
2022-08-17T18:20:53.258Z,7.63
2022-08-17T18:23:27.711Z,9.73
2022-08-17T18:25:56.819Z,7.03
2022-08-17T18:28:35.733Z,11.18
2022-08-17T18:31:16.352Z,9.10
2022-08-17T18:33:47.082Z,9.18
2022-08-17T18:36:29.007Z,8.27
2022-08-17T18:39:16.321Z,8.40
2022-08-17T18:41:47.168Z,10.13
2022-08-17T18:44:38.116Z,10.10
2022-08-17T18:47:15.854Z,8.40
2022-08-17T18:49:58.726Z,9.27
2022-08-17T18:52:33.861Z,8.73
2022-08-17T18:55:14.371Z,7.85
2022-08-17T18:57:59.410Z,7.60
2022-08-17T19:00:32.279Z,8.20
2022-08-17T19:03:04.746Z,12.10
2022-08-17T19:05:42.242Z,9.60
2022-08-17T19:08:29.337Z,10.57
2022-08-17T19:11:09.867Z,11.25
2022-08-17T19:13:45.707Z,7.78
2022-08-17T19:16:41.521Z,12.95
2022-08-17T19:19:15.837Z,10.93
2022-08-17T19:21:50.705Z,8.63
2022-08-17T19:24:26.505Z,8.77
2022-08-17T19:27:11.396Z,10.52
2022-08-17T19:30:01.648Z,10.02
2022-08-17T19:32:34.449Z,10.43
2022-08-17T19:35:03.135Z,8.73
2022-08-17T19:38:04.862Z,13.52
2022-08-17T19:40:54.384Z,7.25
2022-08-17T19:43:51.387Z,11.55
2022-08-17T19:46:37.373Z,12.55
2022-08-17T19:49:16.072Z,12.48
2022-08-17T19:51:55.778Z,10.15
2022-08-17T19:54:35.164Z,8.23
2022-08-17T20:00:09.901Z,8.90
2022-08-17T20:02:37.202Z,8.50
2022-08-17T20:05:37.282Z,12.45
2022-08-17T20:08:24.547Z,12.25
2022-08-17T20:10:57.460Z,11.10
2022-08-17T20:13:35.809Z,10.88
2022-08-17T20:16:04.163Z,8.57
2022-08-17T20:18:38.298Z,10.07
2022-08-17T20:21:20.003Z,7.57
2022-08-17T20:24:02.051Z,9.52
2022-08-17T20:26:55.500Z,10.63
2022-08-17T20:30:00.505Z,10.52
2022-08-17T20:32:52.366Z,9.85
2022-08-17T20:35:32.877Z,8.32
2022-08-17T20:38:11.045Z,12.02
2022-08-17T20:41:04.031Z,9.18
2022-08-17T20:43:35.634Z,8.55
2022-08-17T20:46:14.511Z,14.10
2022-08-17T20:48:46.214Z,7.07
2022-08-17T20:51:40.341Z,8.45
2022-08-17T20:54:27.478Z,7.15
2022-08-17T20:56:57.388Z,10.18
2022-08-17T20:59:25.485Z,7.55
2022-08-17T21:02:17.664Z,10.40
2022-08-17T21:04:54.396Z,11.65
2022-08-17T21:07:30.334Z,9.85
2022-08-17T21:10:17.028Z,11.25
2022-08-17T21:12:48.633Z,8.77
2022-08-17T21:15:28.562Z,10.30
2022-08-17T21:18:07.126Z,11.23
2022-08-17T21:20:57.828Z,9.98
2022-08-17T21:23:43.514Z,8.82
2022-08-17T21:26:50.403Z,11.52
2022-08-17T21:29:33.805Z,12.13
2022-08-17T21:32:02.084Z,10.35
2022-08-17T21:34:29.301Z,8.85
2022-08-17T21:37:18.689Z,10.13
2022-08-17T21:40:29.148Z,11.45
2022-08-17T21:43:04.916Z,9.98
2022-08-17T21:45:36.314Z,9.48
2022-08-17T21:48:12.752Z,7.38
2022-08-17T21:50:43.012Z,15.63
2022-08-17T21:53:18.079Z,10.00
2022-08-17T21:55:50.352Z,10.57
2022-08-17T21:58:48.312Z,10.35
2022-08-17T22:01:22.040Z,12.52
2022-08-17T22:04:03.924Z,11.25
2022-08-17T22:06:41.403Z,10.45
2022-08-17T22:09:29.863Z,12.68
2022-08-17T22:12:10.986Z,11.93
2022-08-17T22:14:53.394Z,9.10
2022-08-17T22:17:36.625Z,10.95
2022-08-17T22:20:14.752Z,12.15
2022-08-17T22:23:20.213Z,9.82
2022-08-17T22:26:05.964Z,9.30
2022-08-17T22:28:45.755Z,12.15
2022-08-17T22:31:20.054Z,8.68
2022-08-17T22:33:59.589Z,10.93
2022-08-17T22:36:37.379Z,8.85
2022-08-17T22:39:04.188Z,9.05
2022-08-17T22:42:00.996Z,8.15
2022-08-17T22:44:35.708Z,8.23
2022-08-17T22:47:11.607Z,10.50
2022-08-17T22:49:53.209Z,8.52
2022-08-17T22:53:00.455Z,10.75
2022-08-17T22:55:49.859Z,8.93
2022-08-17T22:58:38.524Z,12.25
2022-08-17T23:01:23.840Z,11.23
2022-08-17T23:04:32.314Z,8.95
2022-08-17T23:06:59.656Z,14.93
2022-08-17T23:09:26.684Z,5.80
2022-08-17T23:11:58.625Z,11.73
2022-08-17T23:14:32.895Z,7.72
2022-08-17T23:17:02.065Z,9.82
2022-08-17T23:19:31.757Z,8.88
2022-08-17T23:24:35.666Z,10.68
2022-08-17T23:27:03.563Z,10.88
2022-08-17T23:29:30.544Z,12.38
2022-08-17T23:31:59.984Z,11.77
2022-08-17T23:34:28.715Z,10.07
2022-08-17T23:36:56.264Z,5.85
2022-08-17T23:39:27.755Z,8.73
2022-08-17T23:41:59.077Z,7.15
2022-08-17T23:44:28.462Z,9.38
2022-08-17T23:46:55.427Z,6.43
2022-08-17T23:49:23.496Z,9.50
2022-08-17T23:51:53.717Z,8.63
2022-08-17T23:54:33.728Z,9.50
2022-08-17T23:57:02.469Z,9.90
2022-08-17T23:59:29.317Z,12.15
